Time;durP1;ratioP1;P1;durP2;ratioP2;P2;SDS_P1;SDS_P2;PMS_P1;PMS_P2;Temp;Humidity;BMP_temperature;BMP_pressure;BME280_temperature;BME280_humidity;BME280_pressure;Samples;Min_cycle;Max_cycle;Signal;HPM_P1;HPM_P2
2022/11/26 00:00:19;;;;;;;11.57;10.27;;;;;;;6.90;nan;100572.47;6094136;23;20256;-84
2022/11/26 00:02:45;;;;;;;12.73;8.48;;;;;;;6.86;nan;100571.72;6118879;23;20698;-85
2022/11/26 00:05:15;;;;;;;9.43;7.90;;;;;;;6.77;nan;100569.41;6119671;23;20179;-85
2022/11/26 00:07:43;;;;;;;12.20;7.80;;;;;;;6.67;nan;100564.50;6122881;23;20179;-85
2022/11/26 00:10:19;;;;;;;9.45;8.45;;;;;;;6.61;nan;100570.78;6123198;23;20185;-85
2022/11/26 00:12:44;;;;;;;12.20;8.65;;;;;;;6.61;nan;100581.22;6121093;23;20259;-85
2022/11/26 00:15:25;;;;;;;15.03;8.43;;;;;;;6.59;nan;100588.28;6120371;23;20593;-84
2022/11/26 00:17:52;;;;;;;8.98;7.45;;;;;;;6.57;nan;100595.31;6117997;23;20669;-85
2022/11/26 00:20:20;;;;;;;17.73;8.38;;;;;;;6.54;nan;100595.41;6119029;23;20229;-85
2022/11/26 00:22:54;;;;;;;9.80;7.75;;;;;;;6.45;nan;100600.88;6118044;23;20198;-85
2022/11/26 00:25:26;;;;;;;7.25;6.20;;;;;;;6.38;nan;100600.22;6118246;23;20195;-85
2022/11/26 00:27:54;;;;;;;8.13;6.78;;;;;;;6.37;nan;100607.22;6117958;23;20207;-85
2022/11/26 00:30:23;;;;;;;8.65;7.40;;;;;;;6.38;nan;100611.53;6118365;23;20231;-85
2022/11/26 00:32:50;;;;;;;8.93;7.35;;;;;;;6.39;nan;100621.03;6117040;23;20291;-85
2022/11/26 00:35:16;;;;;;;8.43;6.85;;;;;;;6.41;nan;100606.19;6079602;23;20220;-84
2022/11/26 00:37:54;;;;;;;8.00;7.30;;;;;;;6.43;nan;100617.47;6117106;23;20238;-85
2022/11/26 00:40:22;;;;;;;9.57;6.88;;;;;;;6.43;nan;100614.84;6119537;23;20180;-85
2022/11/26 00:42:49;;;;;;;7.30;6.07;;;;;;;6.42;nan;100614.88;6117821;23;20234;-85
2022/11/26 00:45:16;;;;;;;7.03;5.80;;;;;;;6.37;nan;100617.66;6118256;23;20270;-85
2022/11/26 00:47:42;;;;;;;8.82;5.20;;;;;;;6.33;nan;100618.63;6118836;23;20175;-85
2022/11/26 00:50:12;;;;;;;6.80;5.60;;;;;;;6.28;nan;100624.88;6132383;23;20315;-84
2022/11/26 00:52:38;;;;;;;7.55;5.38;;;;;;;6.22;nan;100625.06;6142152;23;20235;-85
2022/11/26 00:55:12;;;;;;;6.70;5.73;;;;;;;6.15;nan;100632.22;6143013;23;20227;-85
2022/11/26 00:57:38;;;;;;;6.63;5.95;;;;;;;6.11;nan;100630.59;6142543;23;20171;-85
2022/11/26 01:00:14;;;;;;;7.40;6.70;;;;;;;6.13;nan;100636.59;6120828;23;20179;-85
2022/11/26 01:02:39;;;;;;;8.95;7.35;;;;;;;6.18;nan;100637.34;6114757;23;20181;-85
2022/11/26 01:05:07;;;;;;;8.20;7.40;;;;;;;6.27;nan;100638.84;6149372;23;20446;-85
2022/11/26 01:07:32;;;;;;;6.97;6.28;;;;;;;6.33;nan;100654.31;6137048;23;20655;-85
2022/11/26 01:09:58;;;;;;;7.87;7.07;;;;;;;6.32;nan;100648.25;6120339;23;20682;-85
2022/11/26 01:12:23;;;;;;;8.83;7.53;;;;;;;6.26;nan;100653.63;6118781;23;20230;-85
2022/11/26 01:14:49;;;;;;;9.50;6.80;;;;;;;6.22;nan;100662.44;6118245;23;20179;-85
2022/11/26 01:17:14;;;;;;;8.80;7.20;;;;;;;6.21;nan;100668.53;6092874;23;20258;-86
2022/11/26 01:19:40;;;;;;;8.20;6.80;;;;;;;6.23;nan;100669.38;6117427;23;20175;-85
2022/11/26 01:22:17;;;;;;;6.30;5.80;;;;;;;6.24;nan;100684.13;6117354;23;20200;-85
2022/11/26 01:24:43;;;;;;;7.80;5.82;;;;;;;6.28;nan;100682.28;6118350;23;20179;-85
2022/11/26 01:27:11;;;;;;;6.47;5.63;;;;;;;6.32;nan;100686.50;6118842;23;20230;-86
2022/11/26 01:29:36;;;;;;;7.50;5.65;;;;;;;6.34;nan;100690.78;6121226;23;20222;-85
2022/11/26 01:32:02;;;;;;;8.47;5.93;;;;;;;6.39;nan;100703.72;6125182;23;20211;-85
2022/11/26 01:34:28;;;;;;;7.37;6.47;;;;;;;6.37;nan;100695.94;6119029;23;20239;-85
2022/11/26 01:36:53;;;;;;;9.03;8.03;;;;;;;6.37;nan;100708.09;6117415;23;20170;-85
2022/11/26 01:39:21;;;;;;;7.50;6.73;;;;;;;6.37;nan;100711.59;6117655;23;20407;-86
2022/11/26 01:42:04;;;;;;;7.07;5.78;;;;;;;6.39;nan;100712.38;6117355;23;20673;-86
2022/11/26 01:44:32;;;;;;;6.93;5.82;;;;;;;6.36;nan;100709.88;6117345;23;20194;-85
2022/11/26 01:46:59;;;;;;;7.45;6.75;;;;;;;6.35;nan;100718.59;6117758;23;20330;-85
2022/11/26 01:49:27;;;;;;;7.82;7.13;;;;;;;6.35;nan;100710.78;6117740;23;20251;-85
2022/11/26 01:51:58;;;;;;;6.72;6.10;;;;;;;6.34;nan;100713.41;6091507;23;20208;-85
2022/11/26 01:54:24;;;;;;;7.07;6.35;;;;;;;6.36;nan;100720.31;6117121;23;20714;-85
2022/11/26 01:56:52;;;;;;;10.00;8.33;;;;;;;6.35;nan;100716.00;6116899;23;20491;-85
2022/11/26 01:59:25;;;;;;;10.70;6.95;;;;;;;6.36;nan;100719.47;6117331;23;20560;-85
2022/11/26 02:01:53;;;;;;;9.05;6.40;;;;;;;6.35;nan;100718.59;6117622;23;20202;-85
2022/11/26 02:04:23;;;;;;;11.80;7.03;;;;;;;6.31;nan;100714.34;6117008;23;20174;-86
2022/11/26 02:06:50;;;;;;;9.55;6.80;;;;;;;6.31;nan;100730.00;6117002;23;20179;-85
2022/11/26 02:09:16;;;;;;;10.15;6.72;;;;;;;6.32;nan;100742.19;6116618;23;20286;-85
2022/11/26 02:11:42;;;;;;;11.35;6.80;;;;;;;6.35;nan;100741.25;6111596;23;20514;-85
2022/11/26 02:14:32;;;;;;;9.27;7.50;;;;;;;6.37;nan;100744.63;6116556;23;20205;-85
2022/11/26 02:17:35;;;;;;;11.07;6.60;;;;;;;6.43;nan;100752.31;6118730;23;20411;-86
2022/11/26 02:20:16;;;;;;;9.23;6.88;;;;;;;6.49;nan;100756.50;5969945;24;20211;-86
2022/11/26 02:22:53;;;;;;;9.52;7.45;;;;;;;6.56;nan;100760.63;6103450;23;20262;-86
2022/11/26 02:25:27;;;;;;;10.30;7.22;;;;;;;6.61;nan;100763.97;6119726;23;20179;-86
2022/11/26 02:28:01;;;;;;;8.45;6.38;;;;;;;6.64;nan;100758.66;6118104;23;20210;-86
2022/11/26 02:30:34;;;;;;;8.25;5.72;;;;;;;6.64;nan;100756.03;6116841;23;20267;-86
2022/11/26 02:33:14;;;;;;;8.68;6.35;;;;;;;6.66;nan;100756.88;6116178;23;20215;-86
2022/11/26 02:35:57;;;;;;;7.57;6.78;;;;;;;6.69;nan;100762.00;6116278;23;20270;-86
2022/11/26 02:38:25;;;;;;;8.20;6.30;;;;;;;6.70;nan;100750.66;6091023;23;20182;-86
2022/11/26 02:40:51;;;;;;;11.55;6.95;;;;;;;6.70;nan;100748.06;6116233;23;20171;-86
2022/11/26 02:43:18;;;;;;;10.90;7.97;;;;;;;6.70;nan;100760.22;6116409;23;20272;-85
2022/11/26 02:45:49;;;;;;;8.45;6.53;;;;;;;6.74;nan;100756.66;6116000;23;20180;-86
2022/11/26 02:48:29;;;;;;;10.75;5.63;;;;;;;6.77;nan;100761.78;6117198;23;20532;-84
2022/11/26 02:51:03;;;;;;;21.08;7.40;;;;;;;6.81;nan;100758.19;6116009;23;20255;-85
2022/11/26 02:53:32;;;;;;;10.70;5.15;;;;;;;6.84;nan;100756.31;6117121;23;20220;-86
2022/11/26 02:56:12;;;;;;;6.50;5.03;;;;;;;6.85;nan;100758.03;6116597;23;20250;-86
2022/11/26 02:58:38;;;;;;;10.50;5.50;;;;;;;6.85;nan;100768.47;6118761;23;20186;-86
2022/11/26 03:01:09;;;;;;;6.45;4.80;;;;;;;6.84;nan;100763.31;6118783;23;20257;-86
2022/11/26 03:03:39;;;;;;;7.50;5.32;;;;;;;6.83;nan;100759.84;6117800;23;20171;-86
2022/11/26 03:06:08;;;;;;;14.50;4.95;;;;;;;6.82;nan;100765.97;6118037;23;20179;-86
2022/11/26 03:08:34;;;;;;;6.00;4.93;;;;;;;6.82;nan;100763.34;6118101;23;21140;-83
2022/11/26 03:11:00;;;;;;;7.43;4.40;;;;;;;6.81;nan;100758.19;6117230;23;20750;-85
2022/11/26 03:13:25;;;;;;;10.67;5.07;;;;;;;6.78;nan;100755.66;6118861;23;21057;-87
2022/11/26 03:15:51;;;;;;;4.63;3.77;;;;;;;6.72;nan;100758.44;6121436;23;20179;-84
2022/11/26 03:18:16;;;;;;;6.70;4.77;;;;;;;6.62;nan;100752.66;6121649;23;20195;-86
2022/11/26 03:20:42;;;;;;;10.93;5.70;;;;;;;6.55;nan;100756.31;6095271;23;20176;-89
2022/11/26 03:23:07;;;;;;;10.40;4.30;;;;;;;6.50;nan;100748.63;6092027;23;20218;-87
2022/11/26 03:25:33;;;;;;;8.90;5.40;;;;;;;6.47;nan;100748.72;6119838;23;20171;-89
2022/11/26 03:27:59;;;;;;;6.63;4.60;;;;;;;6.48;nan;100753.06;6117398;23;20273;-89
2022/11/26 03:30:24;;;;;;;6.83;4.20;;;;;;;6.48;nan;100744.34;6118132;23;20180;-86
2022/11/26 03:32:50;;;;;;;6.70;4.93;;;;;;;6.46;nan;100749.63;6037202;23;20683;-83
2022/11/26 03:35:16;;;;;;;7.83;4.50;;;;;;;6.43;nan;100750.56;6013518;23;20188;-84
2022/11/26 03:37:41;;;;;;;7.13;4.70;;;;;;;6.42;nan;100754.03;6028288;23;20205;-84
2022/11/26 03:40:07;;;;;;;9.30;4.67;;;;;;;6.40;nan;100752.41;6031382;23;20961;-84
2022/11/26 03:42:33;;;;;;;4.72;4.20;;;;;;;6.35;nan;100751.69;6030496;23;20197;-84
2022/11/26 03:44:59;;;;;;;6.60;5.07;;;;;;;6.32;nan;100744.78;6030146;23;20229;-84
2022/11/26 03:47:24;;;;;;;5.47;4.20;;;;;;;6.31;nan;100748.28;6030354;23;20184;-84
2022/11/26 03:49:49;;;;;;;5.53;4.13;;;;;;;6.29;nan;100742.28;6030482;23;20233;-84
2022/11/26 03:52:15;;;;;;;4.90;4.40;;;;;;;6.26;nan;100744.09;6031103;23;20250;-84
2022/11/26 03:54:40;;;;;;;7.40;5.03;;;;;;;6.21;nan;100744.22;6005285;23;20807;-84
2022/11/26 03:57:06;;;;;;;8.67;3.90;;;;;;;6.15;nan;100745.22;6005605;23;20193;-84
2022/11/26 03:59:31;;;;;;;6.60;3.50;;;;;;;6.11;nan;100750.59;6031280;23;20198;-84
2022/11/26 04:01:57;;;;;;;7.13;3.43;;;;;;;6.08;nan;100753.28;6030912;23;20211;-84
2022/11/26 04:04:23;;;;;;;4.88;4.18;;;;;;;6.07;nan;100756.78;6029430;23;21380;-84
2022/11/26 04:06:48;;;;;;;4.00;3.23;;;;;;;6.05;nan;100753.34;6031781;23;20263;-84
2022/11/26 04:09:13;;;;;;;3.57;2.97;;;;;;;6.01;nan;100757.78;6004790;23;20648;-84
2022/11/26 04:11:39;;;;;;;6.80;3.33;;;;;;;5.96;nan;100765.72;6031136;23;20201;-84
2022/11/26 04:14:04;;;;;;;6.23;3.60;;;;;;;5.92;nan;100763.22;6030676;23;20214;-84
2022/11/26 04:16:30;;;;;;;6.03;3.47;;;;;;;5.89;nan;100758.09;6030564;23;20178;-84
2022/11/26 04:18:55;;;;;;;4.57;3.03;;;;;;;5.86;nan;100769.47;6031270;23;20174;-85
2022/11/26 04:21:20;;;;;;;4.90;3.17;;;;;;;5.85;nan;100765.13;6031941;23;20186;-84
2022/11/26 04:23:46;;;;;;;4.53;3.80;;;;;;;5.84;nan;100770.41;6031266;23;20217;-85
2022/11/26 04:26:11;;;;;;;4.47;3.60;;;;;;;5.83;nan;100764.31;6030742;23;20170;-84
2022/11/26 04:28:37;;;;;;;3.60;3.30;;;;;;;5.86;nan;100760.75;6030966;23;20509;-84
2022/11/26 04:31:02;;;;;;;4.10;3.53;;;;;;;5.90;nan;100763.25;6030974;23;20181;-84
2022/11/26 04:33:28;;;;;;;5.47;3.63;;;;;;;5.94;nan;100772.75;6029941;23;20182;-85
2022/11/26 04:35:53;;;;;;;3.60;3.30;;;;;;;5.96;nan;100776.16;6030405;23;20273;-84
2022/11/26 04:38:19;;;;;;;6.50;3.93;;;;;;;5.97;nan;100774.44;6006530;23;20228;-85
2022/11/26 04:40:46;;;;;;;3.53;3.23;;;;;;;6.00;nan;100776.13;6030196;23;20422;-85
2022/11/26 04:43:11;;;;;;;5.60;3.33;;;;;;;6.03;nan;100776.88;6030748;23;20204;-85
2022/11/26 04:45:37;;;;;;;4.10;2.87;;;;;;;6.05;nan;100772.47;6005402;23;20205;-85
2022/11/26 04:48:02;;;;;;;3.83;3.43;;;;;;;6.09;nan;100783.69;6028612;23;20212;-85
2022/11/26 04:50:28;;;;;;;5.30;2.93;;;;;;;6.13;nan;100778.34;6030474;23;20189;-85
2022/11/26 04:52:53;;;;;;;7.73;4.20;;;;;;;6.16;nan;100787.84;6031236;23;20207;-85
2022/11/26 04:55:18;;;;;;;5.67;4.80;;;;;;;6.21;nan;100783.34;6035859;23;20289;-85
2022/11/26 04:57:47;;;;;;;3.50;2.80;;;;;;;6.23;nan;100778.94;6036814;23;20188;-85
2022/11/26 05:00:14;;;;;;;4.05;3.42;;;;;;;6.23;nan;100778.94;6038455;23;20177;-84
2022/11/26 05:02:39;;;;;;;11.70;4.35;;;;;;;6.20;nan;100774.66;6033667;23;20201;-85
2022/11/26 05:05:05;;;;;;;7.00;5.97;;;;;;;6.22;nan;100782.47;6030399;23;20476;-85
2022/11/26 05:07:30;;;;;;;8.40;5.67;;;;;;;6.22;nan;100782.47;6031185;23;20182;-85
2022/11/26 05:09:56;;;;;;;6.80;5.27;;;;;;;6.24;nan;100788.50;6031696;23;20497;-85
2022/11/26 05:12:21;;;;;;;5.70;4.70;;;;;;;6.28;nan;100797.09;6030840;23;20265;-84
2022/11/26 05:14:47;;;;;;;7.63;5.13;;;;;;;6.31;nan;100803.06;6030834;23;20181;-85
2022/11/26 05:17:12;;;;;;;9.00;4.87;;;;;;;6.32;nan;100814.38;6036640;23;20251;-85
2022/11/26 05:19:37;;;;;;;5.03;4.30;;;;;;;6.31;nan;100816.13;6037284;23;20673;-85
2022/11/26 05:22:03;;;;;;;6.07;5.50;;;;;;;6.32;nan;100814.38;6035724;23;20202;-84
2022/11/26 05:24:28;;;;;;;9.83;5.13;;;;;;;6.33;nan;100816.94;6035719;23;20486;-85
2022/11/26 05:26:53;;;;;;;8.30;5.53;;;;;;;6.34;nan;100826.47;6032565;23;20189;-85
2022/11/26 05:29:19;;;;;;;7.50;5.00;;;;;;;6.34;nan;100826.47;6006025;23;20213;-85
2022/11/26 05:31:44;;;;;;;6.33;4.10;;;;;;;6.35;nan;100833.44;6030006;23;20251;-85
2022/11/26 05:34:10;;;;;;;5.40;4.40;;;;;;;6.36;nan;100822.06;6029891;23;20174;-85
2022/11/26 05:36:35;;;;;;;6.93;4.93;;;;;;;6.41;nan;100835.00;6032623;23;20202;-84
2022/11/26 05:39:00;;;;;;;10.63;5.73;;;;;;;6.47;nan;100840.06;6039459;23;20170;-84
2022/11/26 05:41:26;;;;;;;7.77;6.23;;;;;;;6.50;nan;100836.50;6005220;23;20193;-84
2022/11/26 05:43:51;;;;;;;6.83;6.00;;;;;;;6.55;nan;100845.06;6029782;23;20177;-85
2022/11/26 05:46:17;;;;;;;9.80;6.80;;;;;;;6.58;nan;100855.44;6030277;23;20184;-85
2022/11/26 05:48:43;;;;;;;10.90;7.23;;;;;;;6.63;nan;100857.00;6030099;23;20284;-84
2022/11/26 05:51:08;;;;;;;7.07;5.23;;;;;;;6.65;nan;100847.41;6029855;23;20453;-84
2022/11/26 05:53:33;;;;;;;8.13;6.27;;;;;;;6.68;nan;100851.69;6030661;23;20257;-84
2022/11/26 05:55:59;;;;;;;7.50;4.97;;;;;;;6.71;nan;100864.66;6030920;23;20482;-84
2022/11/26 05:58:24;;;;;;;11.10;6.50;;;;;;;6.72;nan;100865.50;6030243;23;20177;-85
2022/11/26 06:00:50;;;;;;;9.77;6.10;;;;;;;6.74;nan;100869.78;6029525;23;20629;-84
2022/11/26 06:03:15;;;;;;;8.63;6.00;;;;;;;6.76;nan;100873.22;6003141;23;20188;-84
2022/11/26 06:05:41;;;;;;;9.97;5.67;;;;;;;6.77;nan;100869.69;6030416;23;20182;-84
2022/11/26 06:08:06;;;;;;;11.20;6.63;;;;;;;6.81;nan;100878.31;6030468;23;20223;-85
2022/11/26 06:10:32;;;;;;;10.33;6.10;;;;;;;6.82;nan;100872.19;6030778;23;20616;-85
2022/11/26 06:12:58;;;;;;;7.30;5.93;;;;;;;6.84;nan;100881.69;6030121;23;20249;-85
2022/11/26 06:15:24;;;;;;;15.27;6.20;;;;;;;6.86;nan;100886.88;6029735;23;20192;-85
2022/11/26 06:17:49;;;;;;;14.67;9.63;;;;;;;6.87;nan;100896.41;6030209;23;20189;-85
2022/11/26 06:20:16;;;;;;;7.07;6.33;;;;;;;6.87;nan;100891.19;6030017;23;20629;-85
2022/11/26 06:22:42;;;;;;;12.25;8.10;;;;;;;6.87;nan;100906.88;6029036;23;20559;-84
2022/11/26 06:25:10;;;;;;;10.35;7.47;;;;;;;6.86;nan;100913.00;6004762;23;21023;-85
2022/11/26 06:27:36;;;;;;;11.15;8.27;;;;;;;6.87;nan;100912.09;6029910;23;20270;-84
2022/11/26 06:30:07;;;;;;;17.85;8.95;;;;;;;6.87;nan;100914.69;6030050;23;20211;-85
2022/11/26 06:32:32;;;;;;;12.52;6.82;;;;;;;6.82;nan;100920.03;6029402;23;20217;-84
2022/11/26 06:34:58;;;;;;;9.33;7.20;;;;;;;6.78;nan;100918.44;6015664;23;20191;-85
2022/11/26 06:37:24;;;;;;;8.53;6.77;;;;;;;6.74;nan;100916.78;6030178;23;20180;-84
2022/11/26 06:39:50;;;;;;;7.55;5.68;;;;;;;6.72;nan;100918.56;6031723;23;20177;-85
2022/11/26 06:42:16;;;;;;;7.10;6.07;;;;;;;6.69;nan;100918.66;6029393;23;20271;-85
2022/11/26 06:44:41;;;;;;;6.73;5.90;;;;;;;6.70;nan;100912.56;6005025;23;20224;-84
2022/11/26 06:47:11;;;;;;;7.87;5.30;;;;;;;6.72;nan;100917.72;6029746;23;20186;-84
2022/11/26 06:49:36;;;;;;;9.40;5.90;;;;;;;6.71;nan;100916.88;6029792;23;20271;-84
2022/11/26 06:52:02;;;;;;;10.83;7.00;;;;;;;6.71;nan;100916.00;6029008;23;20221;-84
2022/11/26 06:54:27;;;;;;;8.77;5.43;;;;;;;6.70;nan;100919.50;6029658;23;20185;-84
2022/11/26 06:56:53;;;;;;;11.83;7.50;;;;;;;6.72;nan;100918.56;6029101;23;20994;-83
2022/11/26 06:59:18;;;;;;;7.10;5.47;;;;;;;6.73;nan;100920.31;6004848;23;20241;-83
2022/11/26 07:01:43;;;;;;;9.80;7.20;;;;;;;6.69;nan;100918.66;6029538;23;20174;-83
2022/11/26 07:04:10;;;;;;;17.23;6.50;;;;;;;6.65;nan;100917.88;6028582;23;20648;-83
2022/11/26 07:06:36;;;;;;;11.48;6.28;;;;;;;6.63;nan;100916.22;6029103;23;20186;-83
2022/11/26 07:09:05;;;;;;;17.50;10.30;;;;;;;6.60;nan;100919.75;6030086;23;20202;-83
2022/11/26 07:11:31;;;;;;;16.17;11.38;;;;;;;6.59;nan;100915.44;6004221;23;20617;-83
2022/11/26 07:13:57;;;;;;;15.70;11.20;;;;;;;6.60;nan;100914.53;6034979;23;20182;-83
2022/11/26 07:16:23;;;;;;;16.50;10.13;;;;;;;6.62;nan;100920.59;6034039;23;20549;-83
2022/11/26 07:18:51;;;;;;;16.58;10.95;;;;;;;6.66;nan;100926.56;6030529;23;20207;-84
2022/11/26 07:21:18;;;;;;;10.43;7.85;;;;;;;6.65;nan;100930.09;6030168;23;20186;-82
2022/11/26 07:23:45;;;;;;;11.38;7.75;;;;;;;6.62;nan;100932.78;6030815;23;20209;-82
2022/11/26 07:26:12;;;;;;;12.63;7.80;;;;;;;6.61;nan;100939.75;6035725;23;20184;-83
2022/11/26 07:28:38;;;;;;;7.63;6.28;;;;;;;6.63;nan;100939.72;6034140;23;20578;-82
2022/11/26 07:31:09;;;;;;;14.23;6.68;;;;;;;6.66;nan;100942.25;6035610;23;20279;-84
2022/11/26 07:33:34;;;;;;;8.90;6.68;;;;;;;6.71;nan;100942.97;6030273;23;20229;-86
2022/11/26 07:36:02;;;;;;;9.67;5.77;;;;;;;6.74;nan;100942.88;6034568;23;20644;-83
2022/11/26 07:38:28;;;;;;;8.88;6.95;;;;;;;6.80;nan;100940.09;6038724;23;20181;-83
2022/11/26 07:40:54;;;;;;;8.68;7.22;;;;;;;6.85;nan;100940.84;6032447;23;20163;-85
2022/11/26 07:43:20;;;;;;;7.30;5.60;;;;;;;6.89;nan;100940.78;5997573;23;20212;-83
2022/11/26 07:45:45;;;;;;;10.90;7.40;;;;;;;6.92;nan;100949.38;6037146;23;20408;-83
2022/11/26 07:48:11;;;;;;;8.07;5.70;;;;;;;6.97;nan;100944.91;6010745;23;20206;-85
2022/11/26 07:50:37;;;;;;;7.77;6.60;;;;;;;7.02;nan;100952.59;6035480;23;20181;-83
2022/11/26 07:53:02;;;;;;;7.77;6.97;;;;;;;7.07;nan;100955.94;6034083;23;20205;-84
2022/11/26 07:55:28;;;;;;;9.43;6.70;;;;;;;7.10;nan;100950.63;6034813;23;20189;-84
2022/11/26 07:57:53;;;;;;;8.20;6.60;;;;;;;7.15;nan;100947.88;6033543;23;20204;-85
2022/11/26 08:00:19;;;;;;;11.60;6.73;;;;;;;7.17;nan;100957.41;6034700;23;20190;-83
2022/11/26 08:02:44;;;;;;;8.93;6.67;;;;;;;7.22;nan;100949.44;6009491;23;20199;-83
2022/11/26 08:05:10;;;;;;;7.37;5.73;;;;;;;7.26;nan;100954.56;6035238;23;20177;-85
2022/11/26 08:07:35;;;;;;;10.10;6.13;;;;;;;7.30;nan;100950.94;6035089;23;20779;-84
2022/11/26 08:10:02;;;;;;;8.83;7.10;;;;;;;7.36;nan;100954.28;6034550;23;20226;-83
2022/11/26 08:12:28;;;;;;;14.70;8.10;;;;;;;7.42;nan;100959.31;6000725;23;20445;-84
2022/11/26 08:14:53;;;;;;;9.90;7.27;;;;;;;7.51;nan;100967.75;6035061;23;20269;-84
2022/11/26 08:17:19;;;;;;;13.10;8.80;;;;;;;7.61;nan;100973.56;6035434;23;20197;-85
2022/11/26 08:19:44;;;;;;;15.50;11.23;;;;;;;7.70;nan;100965.47;6036117;23;20193;-84
2022/11/26 08:22:10;;;;;;;27.23;12.60;;;;;;;7.82;nan;100955.53;6010539;23;20200;-84
2022/11/26 08:24:35;;;;;;;21.13;11.10;;;;;;;7.92;nan;100952.56;6035996;23;20186;-84
2022/11/26 08:27:01;;;;;;;16.13;10.53;;;;;;;8.01;nan;100961.88;6035897;23;20184;-84
2022/11/26 08:29:26;;;;;;;23.50;11.80;;;;;;;8.10;nan;100955.50;6033943;23;20583;-83
2022/11/26 08:31:52;;;;;;;21.83;11.67;;;;;;;8.20;nan;100952.53;6009807;23;20204;-86
2022/11/26 08:34:18;;;;;;;24.77;14.70;;;;;;;8.33;nan;100946.91;6035877;23;20918;-84
2022/11/26 08:36:44;;;;;;;20.70;12.10;;;;;;;8.41;nan;100955.41;6035632;23;20514;-84
2022/11/26 08:39:16;;;;;;;17.52;11.13;;;;;;;8.45;nan;100961.38;6035308;23;20228;-85
2022/11/26 08:41:41;;;;;;;18.48;10.27;;;;;;;8.58;nan;100958.31;6035646;23;20182;-85
2022/11/26 08:44:07;;;;;;;15.87;10.10;;;;;;;8.84;nan;100957.44;6035505;23;20612;-85
2022/11/26 08:46:33;;;;;;;15.47;9.80;;;;;;;8.95;nan;100959.66;6036866;23;20458;-86
2022/11/26 08:49:01;;;;;;;17.03;11.47;;;;;;;8.95;nan;100967.53;6010793;23;20201;-85
2022/11/26 08:51:27;;;;;;;17.60;12.07;;;;;;;8.98;nan;100972.66;6037797;23;20177;-84
2022/11/26 08:53:52;;;;;;;23.93;12.67;;;;;;;8.94;nan;100978.06;6034001;23;20233;-86
2022/11/26 08:56:18;;;;;;;20.83;10.97;;;;;;;8.84;nan;100978.38;6030422;23;20275;-84
2022/11/26 08:58:44;;;;;;;47.20;13.27;;;;;;;8.78;nan;100972.53;6031368;23;20200;-88
2022/11/26 09:01:17;;;;;;;38.80;12.67;;;;;;;8.72;nan;100968.34;6028912;23;20181;-84
2022/11/26 09:03:43;;;;;;;22.38;13.10;;;;;;;8.67;nan;100972.00;6028934;23;20453;-85
2022/11/26 09:06:10;;;;;;;15.00;10.95;;;;;;;8.59;nan;100970.50;6006561;23;20298;-85
2022/11/26 09:11:20;;;;;;;23.20;11.50;;;;;;;8.41;nan;100982.44;6010763;23;20208;-86
2022/11/26 09:13:45;;;;;;;16.10;10.83;;;;;;;8.34;nan;100980.88;6034171;23;20194;-85
2022/11/26 09:16:11;;;;;;;20.27;10.47;;;;;;;8.26;nan;100984.66;6036434;23;20410;-84
2022/11/26 09:18:36;;;;;;;29.23;14.80;;;;;;;8.18;nan;100980.56;6035417;23;20178;-85
2022/11/26 09:21:03;;;;;;;23.80;12.50;;;;;;;8.18;nan;100984.91;6048298;23;20223;-85
2022/11/26 09:23:28;;;;;;;33.20;12.35;;;;;;;8.21;nan;100997.91;6063795;23;20436;-86
2022/11/26 09:25:54;;;;;;;35.97;13.00;;;;;;;8.26;nan;100997.75;6040442;23;20184;-84
2022/11/26 09:28:19;;;;;;;29.17;12.50;;;;;;;8.33;nan;101004.50;6063229;23;20203;-85
2022/11/26 09:30:45;;;;;;;16.40;10.20;;;;;;;8.43;nan;101011.22;6064400;23;20185;-84
2022/11/26 09:33:12;;;;;;;14.30;11.27;;;;;;;8.53;nan;101007.41;6099523;23;20325;-91
2022/11/26 09:35:41;;;;;;;17.58;9.90;;;;;;;8.58;nan;101010.69;6134468;23;20209;-90
2022/11/26 09:38:14;;;;;;;20.92;15.30;;;;;;;8.61;nan;101008.00;6129858;23;20257;-89
2022/11/26 09:40:51;;;;;;;27.17;12.33;;;;;;;8.60;nan;101001.03;6126190;23;20269;-91
2022/11/26 09:43:45;;;;;;;;;;;;;;;;;;;;;
2022/11/26 09:46:29;;;;;;;16.35;11.23;;;;;;;8.57;nan;100997.66;6128565;23;20183;-92
2022/11/26 09:49:03;;;;;;;18.30;10.50;;;;;;;8.62;nan;101001.00;6135529;23;20201;-91
2022/11/26 09:51:29;;;;;;;14.98;10.55;;;;;;;8.66;nan;100996.50;6136489;23;20221;-91
2022/11/26 09:53:56;;;;;;;12.35;10.10;;;;;;;8.61;nan;100989.66;6133428;23;20647;-88
2022/11/26 09:56:26;;;;;;;15.50;11.80;;;;;;;8.59;nan;100990.63;6088909;23;20192;-88
2022/11/26 09:59:01;;;;;;;15.85;9.60;;;;;;;8.61;nan;100992.28;6061134;23;20423;-89
2022/11/26 10:01:29;;;;;;;13.23;10.05;;;;;;;8.66;nan;100986.00;6062111;23;20173;-86
2022/11/26 10:03:54;;;;;;;15.20;10.20;;;;;;;8.74;nan;100991.84;6087788;23;20464;-85
2022/11/26 10:06:26;;;;;;;13.63;10.60;;;;;;;8.79;nan;100987.31;6088243;23;20180;-87
2022/11/26 10:09:29;;;;;;;17.02;10.45;;;;;;;8.80;nan;100983.78;6088395;23;20269;-87
2022/11/26 10:12:02;;;;;;;13.60;10.40;;;;;;;8.83;nan;100983.66;6091457;23;20239;-87
2022/11/26 10:14:50;;;;;;;17.35;10.23;;;;;;;8.85;nan;100987.94;6091978;23;20193;-87
2022/11/26 10:17:34;;;;;;;14.23;9.27;;;;;;;8.81;nan;100985.50;6091630;23;20182;-86
2022/11/26 10:20:05;;;;;;;17.35;10.65;;;;;;;8.79;nan;100976.84;6090056;23;20176;-87
2022/11/26 10:22:37;;;;;;;18.98;10.70;;;;;;;8.80;nan;100978.53;6067586;23;20201;-87
2022/11/26 10:25:12;;;;;;;18.25;11.88;;;;;;;8.72;nan;100985.81;6089196;23;20183;-88
2022/11/26 10:27:38;;;;;;;17.45;11.32;;;;;;;8.59;nan;100985.38;6088690;23;20176;-87
2022/11/26 10:30:20;;;;;;;14.85;10.75;;;;;;;8.55;nan;100989.84;6087958;23;20537;-87
2022/11/26 10:32:47;;;;;;;19.98;11.95;;;;;;;8.58;nan;100989.75;6088148;23;20200;-86
2022/11/26 10:35:18;;;;;;;17.87;12.73;;;;;;;8.64;nan;100991.28;6085264;23;20474;-88
2022/11/26 10:37:43;;;;;;;15.65;11.73;;;;;;;8.67;nan;100990.34;6086586;23;20965;-86
2022/11/26 10:40:20;;;;;;;21.83;12.03;;;;;;;8.71;nan;100984.09;6064053;23;20207;-87
2022/11/26 10:43:01;;;;;;;13.70;9.35;;;;;;;8.76;nan;100982.19;6087346;23;20201;-87
2022/11/26 10:45:42;;;;;;;15.70;9.00;;;;;;;8.79;nan;100982.94;6088831;23;20184;-87
2022/11/26 10:48:31;;;;;;;11.15;8.27;;;;;;;8.75;nan;100980.44;6060691;23;20204;-85
2022/11/26 10:51:12;;;;;;;13.02;8.15;;;;;;;8.66;nan;100980.78;6087677;23;20275;-86
2022/11/26 10:53:57;;;;;;;12.15;8.70;;;;;;;8.62;nan;100970.41;6063264;23;20222;-86
2022/11/26 10:56:45;;;;;;;13.25;9.57;;;;;;;8.63;nan;100961.63;6088414;23;20267;-87
2022/11/26 10:59:23;;;;;;;13.07;7.90;;;;;;;8.66;nan;100959.81;6064092;23;20580;-87
2022/11/26 11:01:50;;;;;;;14.50;9.25;;;;;;;8.66;nan;100959.81;6087865;23;20584;-88
2022/11/26 11:04:29;;;;;;;17.65;12.23;;;;;;;8.64;nan;100959.88;6088082;23;20466;-88
2022/11/26 11:06:55;;;;;;;18.10;11.07;;;;;;;8.65;nan;100948.50;6089297;23;20190;-88
2022/11/26 11:09:24;;;;;;;20.42;10.60;;;;;;;8.68;nan;100948.38;6091400;23;20205;-89
2022/11/26 11:12:19;;;;;;;19.77;11.52;;;;;;;8.74;nan;100952.56;6092101;23;20183;-88
2022/11/26 11:14:45;;;;;;;16.95;9.88;;;;;;;8.81;nan;100943.59;6090496;23;20179;-89
2022/11/26 11:17:27;;;;;;;18.15;13.20;;;;;;;8.90;nan;100942.41;6071001;23;20267;-89
2022/11/26 11:19:53;;;;;;;16.95;10.90;;;;;;;8.97;nan;100950.00;6110555;23;20184;-90
2022/11/26 11:22:19;;;;;;;20.60;9.97;;;;;;;9.04;nan;100948.00;6108696;23;20502;-89
2022/11/26 11:24:46;;;;;;;15.27;9.73;;;;;;;9.08;nan;100939.97;6119519;23;20156;-89
2022/11/26 11:27:30;;;;;;;13.90;9.93;;;;;;;9.09;nan;100939.06;6116858;23;20215;-88
2022/11/26 11:30:00;;;;;;;17.70;10.82;;;;;;;9.11;nan;100944.25;6097394;23;20231;-88
2022/11/26 11:32:35;;;;;;;14.95;9.13;;;;;;;9.15;nan;100937.97;6108025;23;20228;-83
2022/11/26 11:35:21;;;;;;;18.58;10.13;;;;;;;9.20;nan;100940.44;6097077;23;20171;-88
2022/11/26 11:37:49;;;;;;;14.77;9.52;;;;;;;9.20;nan;100945.69;6093797;23;20184;-87
2022/11/26 11:40:17;;;;;;;17.05;9.90;;;;;;;9.22;nan;100939.47;6091960;23;20239;-88
2022/11/26 11:42:50;;;;;;;18.90;9.35;;;;;;;9.27;nan;100936.69;6097687;23;20200;-88
2022/11/26 11:45:47;;;;;;;14.45;9.40;;;;;;;9.32;nan;100934.75;6105937;23;20259;-88
2022/11/26 11:48:29;;;;;;;15.02;10.27;;;;;;;9.40;nan;100924.84;6105327;23;20219;-87
2022/11/26 11:51:02;;;;;;;15.05;9.43;;;;;;;9.45;nan;100919.41;6103683;23;20202;-87
2022/11/26 11:53:43;;;;;;;14.45;9.10;;;;;;;9.47;nan;100917.56;6102180;23;20579;-87
2022/11/26 11:56:27;;;;;;;15.02;9.20;;;;;;;9.49;nan;100913.13;6091050;23;20198;-87